Time;durP1;ratioP1;P1;durP2;ratioP2;P2;SDS_P1;SDS_P2;PMS_P1;PMS_P2;Temp;Humidity;BMP_temperature;BMP_pressure;BME280_temperature;BME280_humidity;BME280_pressure;Samples;Min_cycle;Max_cycle;Signal;HPM_P1;HPM_P2
2021/12/24 00:00:44;;;;;;;115.55;30.75;;;;;;;;;;5070946;28;20049;-78
2021/12/24 00:03:11;;;;;;;116.55;29.88;;;;;;;;;;5073760;28;20068;-78
2021/12/24 00:05:37;;;;;;;112.05;31.00;;;;;;;;;;5074541;28;20154;-79
2021/12/24 00:08:04;;;;;;;133.13;32.08;;;;;;;;;;5074367;28;20057;-77
2021/12/24 00:10:32;;;;;;;123.18;31.25;;;;;;;;;;5076982;28;20061;-79
2021/12/24 00:13:06;;;;;;;107.55;30.67;;;;;;;;;;5095019;28;20288;-79
2021/12/24 00:18:10;;;;;;;114.18;31.10;;;;;;;;;;5081707;28;20106;-79
2021/12/24 00:21:41;;;;;;;107.22;30.05;;;;;;;;;;5095001;28;20088;-78
2021/12/24 00:36:53;;;;;;;69.53;23.67;;;;;;;;;;5095239;28;20503;-78
2021/12/24 00:39:19;;;;;;;74.35;23.08;;;;;;;;;;5095209;28;20076;-79
2021/12/24 00:41:46;;;;;;;78.18;23.15;;;;;;;;;;5088202;28;20056;-79
2021/12/24 00:44:12;;;;;;;68.20;22.67;;;;;;;;;;5082849;28;20053;-78
2021/12/24 00:46:38;;;;;;;85.43;24.10;;;;;;;;;;5078963;28;20504;-79
2021/12/24 00:49:05;;;;;;;76.78;23.77;;;;;;;;;;5074462;28;20049;-79
2021/12/24 00:51:54;;;;;;;72.15;24.17;;;;;;;;;;5073475;28;20104;-77
2021/12/24 00:57:03;;;;;;;72.80;24.00;;;;;;;;;;5074865;28;20139;-79
2021/12/24 00:59:29;;;;;;;89.00;24.95;;;;;;;;;;5084684;28;20095;-79
2021/12/24 01:01:56;;;;;;;82.30;25.33;;;;;;;;;;5094957;28;20087;-79
2021/12/24 01:04:22;;;;;;;68.82;22.90;;;;;;;;;;5093741;28;20060;-78
2021/12/24 01:06:51;;;;;;;83.10;25.20;;;;;;;;;;5094911;28;20107;-78
2021/12/24 01:09:18;;;;;;;87.90;25.33;;;;;;;;;;5093883;28;20060;-79
2021/12/24 01:11:44;;;;;;;84.63;24.77;;;;;;;;;;5087616;28;20052;-79
2021/12/24 01:14:11;;;;;;;90.20;24.50;;;;;;;;;;5073371;28;20088;-79
2021/12/24 01:16:46;;;;;;;69.90;22.77;;;;;;;;;;5091929;28;20061;-79
2021/12/24 01:19:18;;;;;;;81.93;23.88;;;;;;;;;;5093507;28;20121;-78
2021/12/24 01:24:38;;;;;;;69.80;22.98;;;;;;;;;;5092732;28;20098;-79
2021/12/24 01:27:22;;;;;;;75.07;22.77;;;;;;;;;;5083816;28;20057;-79
2021/12/24 01:38:10;;;;;;;79.13;21.58;;;;;;;;;;5074242;28;20057;-78
2021/12/24 01:41:03;;;;;;;75.03;22.70;;;;;;;;;;5076135;28;20107;-79
2021/12/24 01:43:27;;;;;;;74.85;22.33;;;;;;;;;;5080307;28;20056;-79
2021/12/24 01:45:54;;;;;;;80.63;23.35;;;;;;;;;;5073656;28;20091;-78
2021/12/24 01:48:21;;;;;;;83.20;22.75;;;;;;;;;;5074881;28;20056;-79
2021/12/24 01:50:49;;;;;;;86.20;25.02;;;;;;;;;;5073490;28;20508;-80
2021/12/24 01:53:17;;;;;;;78.57;23.08;;;;;;;;;;5075091;28;20532;-80
2021/12/24 01:55:44;;;;;;;89.63;24.15;;;;;;;;;;5075088;28;20590;-79
2021/12/24 01:58:10;;;;;;;99.00;25.35;;;;;;;;;;5077694;28;20040;-79
2021/12/24 02:00:38;;;;;;;89.15;24.75;;;;;;;;;;5092150;28;20064;-80
2021/12/24 02:03:05;;;;;;;88.10;25.17;;;;;;;;;;5089131;28;20558;-79
2021/12/24 02:05:32;;;;;;;105.93;26.20;;;;;;;;;;5074632;28;20602;-79
2021/12/24 02:07:59;;;;;;;113.45;26.55;;;;;;;;;;5094354;28;20083;-79
2021/12/24 02:10:25;;;;;;;120.82;29.15;;;;;;;;;;5085737;28;20088;-79
2021/12/24 02:12:53;;;;;;;114.65;29.17;;;;;;;;;;5089293;28;20045;-79
2021/12/24 02:28:58;;;;;;;111.43;30.88;;;;;;;;;;5074708;28;20053;-79
2021/12/24 02:31:25;;;;;;;111.75;33.38;;;;;;;;;;5074506;28;20111;-79
2021/12/24 02:33:52;;;;;;;101.43;31.52;;;;;;;;;;5071680;28;20053;-78
2021/12/24 02:36:20;;;;;;;106.93;31.75;;;;;;;;;;5072281;28;20053;-79
2021/12/24 02:38:47;;;;;;;100.63;31.13;;;;;;;;;;5074123;28;20061;-79
2021/12/24 02:41:14;;;;;;;106.25;32.08;;;;;;;;;;5073002;28;20490;-79
2021/12/24 02:43:41;;;;;;;99.97;31.50;;;;;;;;;;5078883;28;20094;-78
2021/12/24 02:46:11;;;;;;;107.25;32.22;;;;;;;;;;5082530;28;20052;-78
2021/12/24 02:54:05;;;;;;;80.68;27.90;;;;;;;;;;5098994;28;20049;-79
2021/12/24 02:56:34;;;;;;;63.88;24.27;;;;;;;;;;5072535;28;20119;-78
2021/12/24 02:59:02;;;;;;;75.30;25.70;;;;;;;;;;5074068;28;20081;-80
2021/12/24 03:01:31;;;;;;;68.60;22.65;;;;;;;;;;5073950;28;20049;-79
2021/12/24 03:03:57;;;;;;;69.35;23.55;;;;;;;;;;5081251;28;20157;-79
2021/12/24 03:06:27;;;;;;;68.18;23.38;;;;;;;;;;5072226;28;21081;-79
2021/12/24 03:08:54;;;;;;;72.93;23.75;;;;;;;;;;5072959;28;20049;-79
2021/12/24 03:11:21;;;;;;;66.60;21.27;;;;;;;;;;5080750;28;20226;-79
2021/12/24 03:13:48;;;;;;;70.70;21.83;;;;;;;;;;5091334;28;20131;-79
2021/12/24 03:16:14;;;;;;;60.45;21.17;;;;;;;;;;5074024;28;20057;-79
2021/12/24 03:18:42;;;;;;;50.55;20.60;;;;;;;;;;5085907;28;20794;-80
2021/12/24 03:21:19;;;;;;;54.60;19.73;;;;;;;;;;5094118;28;20063;-79
2021/12/24 03:24:34;;;;;;;51.47;18.88;;;;;;;;;;5094013;28;20056;-80
2021/12/24 03:26:34;;;;;;;49.55;17.05;;;;;;;;;;5074188;28;20067;-79
2021/12/24 03:29:01;;;;;;;50.83;17.73;;;;;;;;;;5091491;28;20082;-79
2021/12/24 03:31:27;;;;;;;51.05;17.23;;;;;;;;;;5085906;28;20057;-78
2021/12/24 03:33:53;;;;;;;46.15;17.73;;;;;;;;;;5085432;28;20060;-80
2021/12/24 03:36:21;;;;;;;42.72;17.10;;;;;;;;;;5089645;28;20052;-80
2021/12/24 03:38:48;;;;;;;39.65;16.50;;;;;;;;;;5087723;28;20053;-79
2021/12/24 03:41:14;;;;;;;47.75;16.08;;;;;;;;;;5072333;28;20089;-80
2021/12/24 03:43:41;;;;;;;52.67;17.42;;;;;;;;;;5071179;28;21035;-79
2021/12/24 03:46:12;;;;;;;52.92;17.58;;;;;;;;;;5072355;28;20888;-80
2021/12/24 03:51:24;;;;;;;49.92;16.40;;;;;;;;;;5076550;28;20056;-79
2021/12/24 03:56:38;;;;;;;57.58;17.00;;;;;;;;;;5073543;28;20053;-79
2021/12/24 03:59:05;;;;;;;48.78;16.02;;;;;;;;;;5070798;28;20111;-80
2021/12/24 04:01:31;;;;;;;45.50;15.30;;;;;;;;;;5070851;28;20056;-80
2021/12/24 04:03:58;;;;;;;46.25;14.55;;;;;;;;;;5073340;28;20056;-80
2021/12/24 04:06:24;;;;;;;47.45;16.00;;;;;;;;;;5072383;28;20479;-80
2021/12/24 04:08:51;;;;;;;42.47;14.40;;;;;;;;;;5071329;28;20072;-79
2021/12/24 04:11:17;;;;;;;45.30;15.25;;;;;;;;;;5078812;28;20052;-80
2021/12/24 04:13:43;;;;;;;51.85;14.98;;;;;;;;;;5093060;28;20103;-80
2021/12/24 04:16:10;;;;;;;44.22;15.02;;;;;;;;;;5091793;28;20057;-80
2021/12/24 04:18:49;;;;;;;47.58;14.82;;;;;;;;;;5094997;28;20535;-80
2021/12/24 04:26:45;;;;;;;47.00;15.18;;;;;;;;;;5089908;28;20052;-80
2021/12/24 04:29:12;;;;;;;42.22;14.43;;;;;;;;;;5085975;28;20061;-80
2021/12/24 04:34:06;;;;;;;42.42;14.30;;;;;;;;;;5071897;28;20033;-80
2021/12/24 04:36:49;;;;;;;38.25;13.07;;;;;;;;;;5073705;28;20045;-79
2021/12/24 04:51:04;;;;;;;37.83;13.80;;;;;;;;;;5092253;28;20036;-79
2021/12/24 05:03:58;;;;;;;42.78;11.93;;;;;;;;;;5075989;28;20063;-80
2021/12/24 05:06:32;;;;;;;33.65;11.23;;;;;;;;;;5074900;28;20068;-79
2021/12/24 05:09:05;;;;;;;42.67;11.65;;;;;;;;;;5091786;28;20063;-80
2021/12/24 05:11:32;;;;;;;30.92;10.90;;;;;;;;;;5095142;28;20049;-79
2021/12/24 05:13:58;;;;;;;36.42;10.63;;;;;;;;;;5083313;28;20562;-80
2021/12/24 05:16:37;;;;;;;37.95;10.60;;;;;;;;;;5079271;28;20057;-80
2021/12/24 05:21:33;;;;;;;27.98;9.52;;;;;;;;;;5095874;28;20130;-80
2021/12/24 05:24:00;;;;;;;34.72;10.15;;;;;;;;;;5090328;28;20084;-80
2021/12/24 05:26:27;;;;;;;31.13;10.30;;;;;;;;;;5073780;28;20080;-80
2021/12/24 05:28:53;;;;;;;28.95;9.10;;;;;;;;;;5074708;28;20103;-80
2021/12/24 05:31:20;;;;;;;28.83;8.77;;;;;;;;;;5073441;28;20053;-80
2021/12/24 05:33:46;;;;;;;31.20;9.25;;;;;;;;;;5076683;28;20041;-80
2021/12/24 05:36:13;;;;;;;33.72;8.93;;;;;;;;;;5075403;28;20087;-80
2021/12/24 05:38:39;;;;;;;31.23;8.43;;;;;;;;;;5074367;28;20064;-80
2021/12/24 05:41:05;;;;;;;31.88;8.18;;;;;;;;;;5072573;28;20064;-80
2021/12/24 05:43:32;;;;;;;31.80;8.23;;;;;;;;;;5090953;28;20087;-79
2021/12/24 05:45:58;;;;;;;32.97;8.10;;;;;;;;;;5093928;28;20067;-80
2021/12/24 05:48:25;;;;;;;24.23;8.40;;;;;;;;;;5076259;28;20056;-80
2021/12/24 05:50:51;;;;;;;31.63;7.68;;;;;;;;;;5077911;28;20107;-80
2021/12/24 05:53:17;;;;;;;19.75;8.05;;;;;;;;;;5073391;28;20115;-80
2021/12/24 05:55:44;;;;;;;26.70;8.05;;;;;;;;;;5074627;28;20056;-80
2021/12/24 05:58:10;;;;;;;27.13;7.60;;;;;;;;;;5084888;28;20118;-80
2021/12/24 06:00:39;;;;;;;28.90;7.72;;;;;;;;;;5079451;28;20107;-81
2021/12/24 06:03:06;;;;;;;20.13;6.75;;;;;;;;;;5074127;28;20037;-80
2021/12/24 06:05:34;;;;;;;29.73;7.47;;;;;;;;;;5082912;28;20045;-80
2021/12/24 06:08:01;;;;;;;22.95;7.82;;;;;;;;;;5094926;28;20092;-81
2021/12/24 06:10:27;;;;;;;41.30;8.15;;;;;;;;;;5085880;28;20052;-81
2021/12/24 06:12:54;;;;;;;22.50;7.00;;;;;;;;;;5093367;28;20061;-80
2021/12/24 06:15:24;;;;;;;25.85;6.38;;;;;;;;;;5094052;28;20060;-81
2021/12/24 06:17:53;;;;;;;23.77;6.50;;;;;;;;;;5093981;28;20560;-81
2021/12/24 06:20:20;;;;;;;29.67;7.63;;;;;;;;;;5092754;28;20271;-80
2021/12/24 06:22:47;;;;;;;27.30;6.72;;;;;;;;;;5086298;28;20091;-81
2021/12/24 06:25:13;;;;;;;25.30;6.82;;;;;;;;;;5073096;28;20053;-81
2021/12/24 06:27:40;;;;;;;27.08;6.90;;;;;;;;;;5080602;28;20130;-81
2021/12/24 06:30:07;;;;;;;30.77;7.15;;;;;;;;;;5084653;28;20090;-81
2021/12/24 06:32:33;;;;;;;20.27;6.65;;;;;;;;;;5072877;28;20103;-81
2021/12/24 06:35:00;;;;;;;25.95;6.50;;;;;;;;;;5074264;28;20107;-81
2021/12/24 06:37:26;;;;;;;25.67;7.03;;;;;;;;;;5078302;28;20049;-78
2021/12/24 06:39:54;;;;;;;24.95;6.47;;;;;;;;;;5071081;28;20049;-78
2021/12/24 06:42:25;;;;;;;26.50;7.18;;;;;;;;;;5079203;28;20152;-78
2021/12/24 06:44:52;;;;;;;22.35;7.00;;;;;;;;;;5085738;28;20103;-78
2021/12/24 06:47:19;;;;;;;20.70;7.47;;;;;;;;;;5088654;28;20052;-80
2021/12/24 06:49:45;;;;;;;31.17;7.68;;;;;;;;;;5093063;28;20052;-80
2021/12/24 06:52:11;;;;;;;27.17;8.63;;;;;;;;;;5077930;28;20045;-81
2021/12/24 06:54:38;;;;;;;31.55;7.93;;;;;;;;;;5072495;28;20134;-81
2021/12/24 06:57:11;;;;;;;27.58;8.20;;;;;;;;;;5075564;28;20068;-80
2021/12/24 06:59:38;;;;;;;30.52;8.38;;;;;;;;;;5071238;28;20053;-80
2021/12/24 07:02:04;;;;;;;29.08;8.25;;;;;;;;;;5071672;28;20052;-80
2021/12/24 07:04:31;;;;;;;29.77;8.13;;;;;;;;;;5088376;28;20049;-81
2021/12/24 07:06:57;;;;;;;31.70;7.78;;;;;;;;;;5072372;28;20095;-80
2021/12/24 07:09:24;;;;;;;24.27;7.90;;;;;;;;;;5070973;28;20056;-81
2021/12/24 07:11:50;;;;;;;25.30;7.70;;;;;;;;;;5090148;28;20049;-80
2021/12/24 07:14:17;;;;;;;32.42;8.95;;;;;;;;;;5090817;28;20048;-81
2021/12/24 07:16:45;;;;;;;34.92;8.50;;;;;;;;;;5087237;28;20056;-81
2021/12/24 07:19:11;;;;;;;30.85;8.57;;;;;;;;;;5089987;28;20049;-80
2021/12/24 07:21:39;;;;;;;28.88;9.13;;;;;;;;;;5071797;28;20080;-79
2021/12/24 07:24:06;;;;;;;33.50;8.88;;;;;;;;;;5070668;28;20049;-79
2021/12/24 07:26:33;;;;;;;31.75;8.88;;;;;;;;;;5071185;28;20049;-78
2021/12/24 07:29:00;;;;;;;34.72;9.63;;;;;;;;;;5073085;28;20049;-78
2021/12/24 07:31:26;;;;;;;34.95;8.70;;;;;;;;;;5078278;28;20045;-79
2021/12/24 07:33:53;;;;;;;25.48;7.93;;;;;;;;;;5071536;28;20059;-78
2021/12/24 07:36:19;;;;;;;31.25;8.55;;;;;;;;;;5072509;28;20053;-78
2021/12/24 07:38:45;;;;;;;30.60;9.13;;;;;;;;;;5070541;28;20053;-78
2021/12/24 07:41:14;;;;;;;30.15;8.45;;;;;;;;;;5071404;28;20057;-78
2021/12/24 07:43:40;;;;;;;34.72;8.38;;;;;;;;;;5077607;28;20041;-79
2021/12/24 07:46:07;;;;;;;27.63;8.13;;;;;;;;;;5071208;28;20111;-78
2021/12/24 07:48:43;;;;;;;28.50;8.27;;;;;;;;;;5072284;28;20057;-78
2021/12/24 07:53:36;;;;;;;33.50;10.13;;;;;;;;;;5079801;28;20125;-78
2021/12/24 07:56:02;;;;;;;31.63;9.20;;;;;;;;;;5072678;28;20666;-79
2021/12/24 07:58:29;;;;;;;27.83;8.00;;;;;;;;;;5073943;28;20495;-78
2021/12/24 08:00:55;;;;;;;24.90;7.88;;;;;;;;;;5088185;28;20087;-78
2021/12/24 08:03:24;;;;;;;31.30;8.80;;;;;;;;;;5071070;28;20037;-78
2021/12/24 08:05:50;;;;;;;25.80;8.32;;;;;;;;;;5073884;28;20056;-78
2021/12/24 08:08:17;;;;;;;29.45;8.48;;;;;;;;;;5077216;28;20056;-78
2021/12/24 08:10:43;;;;;;;29.70;8.23;;;;;;;;;;5081900;28;20053;-78
2021/12/24 08:13:10;;;;;;;32.85;9.55;;;;;;;;;;5074999;28;20053;-78
2021/12/24 08:15:36;;;;;;;32.00;8.65;;;;;;;;;;5081128;28;20067;-79
2021/12/24 08:18:08;;;;;;;26.55;9.38;;;;;;;;;;5082335;28;20064;-78
2021/12/24 08:20:34;;;;;;;21.90;8.30;;;;;;;;;;5083597;28;20057;-79
2021/12/24 08:23:00;;;;;;;30.92;8.35;;;;;;;;;;5088473;28;20118;-79
2021/12/24 08:25:27;;;;;;;29.70;8.75;;;;;;;;;;5087696;28;20091;-78
2021/12/24 08:27:53;;;;;;;33.28;8.73;;;;;;;;;;5093363;28;20091;-78
2021/12/24 08:30:20;;;;;;;30.67;8.55;;;;;;;;;;5094734;28;20103;-79
2021/12/24 08:32:46;;;;;;;35.03;8.85;;;;;;;;;;5093930;28;20110;-79
2021/12/24 08:35:14;;;;;;;29.10;8.95;;;;;;;;;;5089139;28;20044;-78
2021/12/24 08:37:41;;;;;;;29.85;8.18;;;;;;;;;;5091880;28;20999;-79
2021/12/24 08:40:08;;;;;;;25.35;7.93;;;;;;;;;;5087284;28;20053;-78
2021/12/24 08:42:34;;;;;;;32.58;8.63;;;;;;;;;;5081899;28;20045;-78
2021/12/24 08:45:00;;;;;;;31.05;9.20;;;;;;;;;;5086142;28;20584;-79
2021/12/24 08:47:27;;;;;;;30.83;8.23;;;;;;;;;;5086326;28;20084;-79
2021/12/24 08:49:54;;;;;;;28.23;7.32;;;;;;;;;;5093963;28;20052;-79
2021/12/24 08:52:20;;;;;;;29.65;7.88;;;;;;;;;;5092026;28;20291;-78
2021/12/24 08:54:46;;;;;;;27.17;8.23;;;;;;;;;;5084737;28;20044;-78
2021/12/24 08:57:13;;;;;;;24.25;7.80;;;;;;;;;;5095521;28;20075;-78
2021/12/24 08:59:39;;;;;;;33.38;7.82;;;;;;;;;;5092765;28;20081;-79
2021/12/24 09:02:06;;;;;;;30.63;8.02;;;;;;;;;;5092858;28;20515;-79
2021/12/24 09:04:32;;;;;;;32.42;8.30;;;;;;;;;;5073891;28;20052;-79
2021/12/24 09:06:58;;;;;;;27.45;7.50;;;;;;;;;;5073892;28;20053;-78
2021/12/24 09:09:27;;;;;;;25.67;8.60;;;;;;;;;;5072356;28;20033;-78
2021/12/24 09:11:54;;;;;;;33.10;8.70;;;;;;;;;;5074868;28;20045;-79
2021/12/24 09:14:20;;;;;;;35.40;10.32;;;;;;;;;;5073335;28;20087;-79
2021/12/24 09:16:47;;;;;;;27.88;8.60;;;;;;;;;;5074538;28;20057;-79
2021/12/24 09:19:16;;;;;;;24.58;7.65;;;;;;;;;;5089267;28;20053;-79
2021/12/24 09:21:42;;;;;;;30.88;8.48;;;;;;;;;;5079236;28;20490;-78
2021/12/24 09:24:09;;;;;;;35.58;9.35;;;;;;;;;;5075585;28;20056;-81
2021/12/24 09:26:37;;;;;;;24.45;9.00;;;;;;;;;;5075312;28;20060;-80
2021/12/24 09:29:05;;;;;;;28.25;8.52;;;;;;;;;;5075234;28;20512;-81
2021/12/24 09:31:32;;;;;;;31.25;9.65;;;;;;;;;;5079321;28;20411;-79
2021/12/24 09:33:58;;;;;;;30.08;9.38;;;;;;;;;;5094555;28;20056;-78
2021/12/24 09:36:27;;;;;;;28.48;9.55;;;;;;;;;;5086221;28;20129;-78
2021/12/24 09:38:55;;;;;;;24.08;9.18;;;;;;;;;;5094612;28;20511;-78
2021/12/24 09:41:22;;;;;;;32.33;9.82;;;;;;;;;;5077491;28;20071;-79
2021/12/24 09:43:49;;;;;;;29.02;9.98;;;;;;;;;;5083219;28;20467;-78
2021/12/24 09:46:16;;;;;;;29.33;10.52;;;;;;;;;;5079737;28;20099;-78
2021/12/24 09:48:42;;;;;;;25.98;9.82;;;;;;;;;;5073182;28;20384;-78
2021/12/24 09:51:09;;;;;;;30.15;10.43;;;;;;;;;;5078116;28;20040;-79
2021/12/24 09:53:38;;;;;;;36.33;10.57;;;;;;;;;;5079400;28;20053;-78
2021/12/24 09:56:05;;;;;;;31.60;11.07;;;;;;;;;;5081444;28;20052;-79
2021/12/24 09:58:32;;;;;;;28.20;10.00;;;;;;;;;;5075681;28;20507;-79
2021/12/24 10:00:59;;;;;;;40.92;11.07;;;;;;;;;;5075850;28;20052;-78
2021/12/24 10:03:33;;;;;;;39.63;12.38;;;;;;;;;;5077011;28;20045;-78
2021/12/24 10:06:00;;;;;;;40.45;10.82;;;;;;;;;;5088798;28;20112;-78
2021/12/24 10:08:27;;;;;;;28.33;11.00;;;;;;;;;;5081388;28;20037;-78
2021/12/24 10:11:00;;;;;;;35.17;10.65;;;;;;;;;;5081399;28;20250;-81
2021/12/24 10:13:32;;;;;;;24.65;9.77;;;;;;;;;;5073409;28;20060;-77
2021/12/24 10:16:03;;;;;;;35.60;11.35;;;;;;;;;;5075905;28;20053;-76
2021/12/24 10:18:30;;;;;;;28.10;9.75;;;;;;;;;;5079626;28;20056;-77
2021/12/24 10:20:57;;;;;;;33.20;10.40;;;;;;;;;;5081686;28;20234;-77
2021/12/24 10:23:42;;;;;;;25.77;9.88;;;;;;;;;;5086596;28;20052;-77
2021/12/24 10:26:18;;;;;;;21.95;9.88;;;;;;;;;;5073944;28;20130;-77
2021/12/24 10:28:51;;;;;;;33.05;9.65;;;;;;;;;;5078652;28;20257;-77
2021/12/24 10:31:22;;;;;;;29.98;9.95;;;;;;;;;;5073951;28;20048;-77
2021/12/24 10:34:07;;;;;;;37.85;10.65;;;;;;;;;;5072630;28;20048;-77
2021/12/24 10:36:54;;;;;;;33.08;9.90;;;;;;;;;;5080492;28;20102;-77
2021/12/24 10:39:26;;;;;;;36.70;10.82;;;;;;;;;;5080820;28;20087;-76
2021/12/24 10:41:54;;;;;;;32.03;10.80;;;;;;;;;;5074650;28;20538;-77
2021/12/24 10:44:25;;;;;;;33.90;10.25;;;;;;;;;;5077231;28;20106;-77
2021/12/24 10:47:12;;;;;;;33.65;9.85;;;;;;;;;;5070844;28;20103;-77
2021/12/24 10:52:28;;;;;;;34.95;10.77;;;;;;;;;;5075289;28;20102;-77
2021/12/24 10:54:56;;;;;;;31.42;10.63;;;;;;;;;;5082517;28;20091;-78
2021/12/24 10:57:27;;;;;;;30.98;10.82;;;;;;;;;;5087827;28;20041;-77
2021/12/24 10:59:54;;;;;;;;;;;;;;;;;;5076353;28;20102;-77
2021/12/24 11:02:23;;;;;;;38.45;11.07;;;;;;;;;;5073223;28;46600;-77
2021/12/24 11:04:52;;;;;;;37.45;10.55;;;;;;;;;;5077689;28;20049;-76
2021/12/24 11:07:39;;;;;;;28.83;10.13;;;;;;;;;;5086393;28;20053;-77
2021/12/24 11:10:06;;;;;;;26.80;9.90;;;;;;;;;;5086077;28;20099;-78
2021/12/24 11:12:36;;;;;;;26.60;10.30;;;;;;;;;;5085507;28;20056;-77
2021/12/24 11:15:16;;;;;;;28.52;10.80;;;;;;;;;;5086558;28;20052;-77
2021/12/24 11:17:42;;;;;;;34.77;11.13;;;;;;;;;;5077791;28;20056;-76
2021/12/24 11:20:09;;;;;;;27.38;10.82;;;;;;;;;;5074315;28;20052;-77
2021/12/24 11:22:49;;;;;;;28.20;10.43;;;;;;;;;;5079350;28;20573;-77
2021/12/24 11:25:16;;;;;;;30.27;10.68;;;;;;;;;;5078893;28;20076;-77
2021/12/24 11:27:42;;;;;;;35.20;9.40;;;;;;;;;;5085708;28;20386;-78
2021/12/24 11:30:08;;;;;;;34.92;9.68;;;;;;;;;;5085383;28;20109;-78
2021/12/24 11:32:35;;;;;;;34.20;9.13;;;;;;;;;;5091643;28;20079;-78
2021/12/24 11:35:02;;;;;;;31.17;9.13;;;;;;;;;;5078391;28;20105;-77
2021/12/24 11:37:29;;;;;;;30.20;8.82;;;;;;;;;;5075147;28;20059;-77
2021/12/24 11:39:57;;;;;;;31.00;7.70;;;;;;;;;;5083302;28;20056;-78
2021/12/24 11:42:24;;;;;;;27.38;8.90;;;;;;;;;;5082784;28;20083;-77
2021/12/24 11:44:51;;;;;;;31.48;9.23;;;;;;;;;;5073442;28;20114;-77
2021/12/24 11:47:17;;;;;;;23.30;8.82;;;;;;;;;;5078695;28;20048;-77
2021/12/24 11:49:44;;;;;;;25.90;8.25;;;;;;;;;;5078344;28;20073;-77
2021/12/24 11:52:10;;;;;;;28.45;8.80;;;;;;;;;;5081061;28;20203;-77
2021/12/24 11:54:37;;;;;;;27.50;8.13;;;;;;;;;;5070247;28;20099;-77
2021/12/24 11:57:14;;;;;;;25.55;8.30;;;;;;;;;;5070946;28;20068;-77
2021/12/24 11:59:41;;;;;;;29.52;7.80;;;;;;;;;;5087189;28;20485;-77
2021/12/24 12:02:08;;;;;;;28.95;7.05;;;;;;;;;;5081894;28;20215;-77
2021/12/24 12:04:34;;;;;;;26.63;9.05;;;;;;;;;;5073957;28;20171;-77
2021/12/24 12:07:17;;;;;;;25.80;7.72;;;;;;;;;;5078240;28;20053;-79
2021/12/24 12:09:45;;;;;;;31.88;7.75;;;;;;;;;;5083677;28;20044;-77
2021/12/24 12:12:15;;;;;;;21.50;7.57;;;;;;;;;;5087760;28;20439;-78
2021/12/24 12:14:41;;;;;;;34.35;7.43;;;;;;;;;;5085552;28;20053;-77
2021/12/24 12:17:08;;;;;;;30.58;7.47;;;;;;;;;;5073373;28;20106;-77
2021/12/24 12:22:43;;;;;;;28.02;7.80;;;;;;;;;;5076615;28;20877;-78
2021/12/24 12:25:12;;;;;;;31.92;7.43;;;;;;;;;;5091086;28;20053;-77
2021/12/24 12:27:54;;;;;;;24.38;7.45;;;;;;;;;;5089816;28;20057;-77
2021/12/24 12:30:39;;;;;;;23.77;7.38;;;;;;;;;;5083206;28;20095;-77
2021/12/24 12:33:11;;;;;;;28.05;7.53;;;;;;;;;;5091068;28;20036;-77
2021/12/24 12:35:46;;;;;;;27.67;7.85;;;;;;;;;;5079468;28;20085;-77
2021/12/24 12:38:21;;;;;;;19.63;9.07;;;;;;;;;;5078014;28;20048;-77
2021/12/24 12:40:48;;;;;;;31.48;8.65;;;;;;;;;;5083224;28;20053;-77
2021/12/24 12:43:14;;;;;;;29.13;8.27;;;;;;;;;;5085676;28;20052;-77
2021/12/24 12:45:47;;;;;;;29.02;8.88;;;;;;;;;;5091242;28;20478;-77
2021/12/24 12:48:22;;;;;;;25.88;8.50;;;;;;;;;;5076784;28;20057;-76
2021/12/24 12:50:53;;;;;;;29.55;8.02;;;;;;;;;;5072855;28;20119;-77
2021/12/24 12:53:30;;;;;;;25.38;7.32;;;;;;;;;;5077731;28;20098;-77
2021/12/24 12:56:14;;;;;;;28.35;8.30;;;;;;;;;;5089912;28;20806;-77
2021/12/24 12:58:41;;;;;;;26.73;7.93;;;;;;;;;;5089399;28;20157;-77
2021/12/24 13:01:19;;;;;;;21.00;7.85;;;;;;;;;;5093263;28;20106;-78
2021/12/24 13:03:55;;;;;;;30.55;8.27;;;;;;;;;;5085760;28;20060;-77
2021/12/24 13:06:21;;;;;;;33.97;8.73;;;;;;;;;;5085283;28;20111;-77
2021/12/24 13:08:47;;;;;;;31.70;9.27;;;;;;;;;;5091078;28;20052;-78
2021/12/24 13:11:18;;;;;;;27.42;8.95;;;;;;;;;;5093339;28;20075;-78
2021/12/24 13:13:56;;;;;;;21.38;8.85;;;;;;;;;;5088843;28;21643;-78
2021/12/24 13:16:32;;;;;;;27.27;8.98;;;;;;;;;;5083561;28;20070;-77
2021/12/24 13:19:22;;;;;;;29.67;9.73;;;;;;;;;;5090072;28;20067;-77
2021/12/24 13:22:28;;;;;;;32.13;9.95;;;;;;;;;;5088342;28;20061;-78
2021/12/24 13:25:05;;;;;;;36.88;9.60;;;;;;;;;;5090307;28;20053;-78
2021/12/24 13:27:34;;;;;;;25.40;8.77;;;;;;;;;;5077280;28;20613;-78
2021/12/24 13:30:08;;;;;;;25.63;8.93;;;;;;;;;;5077313;28;20052;-78
2021/12/24 13:32:43;;;;;;;28.60;9.25;;;;;;;;;;5074762;28;20111;-77
2021/12/24 13:35:09;;;;;;;30.60;9.25;;;;;;;;;;5079612;28;20095;-78
2021/12/24 13:37:36;;;;;;;25.67;8.57;;;;;;;;;;5081805;28;20061;-78
2021/12/24 13:40:07;;;;;;;29.55;9.23;;;;;;;;;;5079870;28;20087;-77
2021/12/24 13:43:04;;;;;;;22.02;8.70;;;;;;;;;;5080821;28;20075;-77
2021/12/24 13:45:34;;;;;;;24.25;9.15;;;;;;;;;;5068131;28;20091;-77
2021/12/24 13:48:10;;;;;;;26.55;8.13;;;;;;;;;;5083974;28;20542;-79
2021/12/24 13:56:07;;;;;;;21.10;8.05;;;;;;;;;;5084947;28;20092;-76
2021/12/24 13:58:34;;;;;;;22.98;8.43;;;;;;;;;;5076566;28;20088;-77
2021/12/24 14:01:01;;;;;;;25.50;8.43;;;;;;;;;;5074110;28;20087;-77
2021/12/24 14:03:30;;;;;;;17.77;7.78;;;;;;;;;;5069956;28;20060;-79
2021/12/24 14:05:58;;;;;;;21.90;7.85;;;;;;;;;;5072232;28;20585;-77
2021/12/24 14:08:26;;;;;;;21.73;7.38;;;;;;;;;;5089734;28;20094;-78
2021/12/24 14:11:07;;;;;;;20.55;7.50;;;;;;;;;;5090863;28;20057;-78
2021/12/24 14:13:41;;;;;;;20.40;7.00;;;;;;;;;;5080729;28;20094;-78
2021/12/24 14:19:05;;;;;;;29.65;13.75;;;;;;;;;;5086226;28;20052;-78
2021/12/24 14:24:11;;;;;;;18.70;8.20;;;;;;;;;;5072137;28;20585;-78
2021/12/24 14:26:42;;;;;;;26.92;10.45;;;;;;;;;;5078224;28;20100;-78
2021/12/24 14:29:08;;;;;;;;;;;;;;;;;;5081150;28;20091;-78
2021/12/24 14:31:53;;;;;;;18.77;6.78;;;;;;;;;;5081203;28;43354;-76
2021/12/24 14:34:27;;;;;;;19.65;9.40;;;;;;;;;;5084924;28;20091;-78
2021/12/24 14:37:00;;;;;;;17.15;7.47;;;;;;;;;;5076842;28;20085;-78
2021/12/24 14:39:33;;;;;;;13.40;4.47;;;;;;;;;;5072920;28;20057;-78
2021/12/24 14:42:09;;;;;;;13.93;5.80;;;;;;;;;;5074427;28;20060;-78
2021/12/24 14:44:35;;;;;;;13.25;4.95;;;;;;;;;;5087729;28;20090;-78
2021/12/24 14:47:02;;;;;;;9.23;4.80;;;;;;;;;;5073935;28;20061;-78
2021/12/24 14:49:35;;;;;;;25.27;10.82;;;;;;;;;;5083679;28;20984;-77
2021/12/24 14:52:19;;;;;;;13.68;5.80;;;;;;;;;;5080826;28;20117;-78
2021/12/24 14:55:05;;;;;;;15.98;5.85;;;;;;;;;;5079894;28;20049;-78
2021/12/24 14:57:35;;;;;;;8.32;3.00;;;;;;;;;;5078401;28;20052;-78
2021/12/24 15:00:06;;;;;;;8.23;2.97;;;;;;;;;;5071888;28;20041;-78
2021/12/24 15:02:32;;;;;;;;;;;;;;;;;;5078389;28;20110;-78
2021/12/24 15:04:58;;;;;;;5.63;2.67;;;;;;;;;;5082766;28;47885;-78
2021/12/24 15:07:31;;;;;;;6.47;3.03;;;;;;;;;;5087209;28;20032;-78
2021/12/24 15:10:08;;;;;;;8.23;3.78;;;;;;;;;;5076289;28;20586;-78
2021/12/24 15:12:48;;;;;;;6.70;3.63;;;;;;;;;;5081385;28;20048;-77
2021/12/24 15:15:15;;;;;;;6.32;2.97;;;;;;;;;;5087928;28;20049;-78
2021/12/24 15:17:42;;;;;;;7.15;4.00;;;;;;;;;;5084072;28;20918;-78
2021/12/24 15:20:09;;;;;;;7.82;3.95;;;;;;;;;;5076132;28;20049;-78
2021/12/24 15:22:35;;;;;;;4.90;2.40;;;;;;;;;;5071808;28;20056;-78
2021/12/24 15:25:03;;;;;;;5.40;2.20;;;;;;;;;;5082896;28;20049;-78
2021/12/24 15:27:33;;;;;;;5.80;2.50;;;;;;;;;;5080140;28;20066;-77
2021/12/24 15:30:00;;;;;;;8.35;2.13;;;;;;;;;;5088417;28;20141;-77
2021/12/24 15:32:27;;;;;;;5.40;2.60;;;;;;;;;;5084957;28;20049;-77
2021/12/24 15:34:53;;;;;;;6.47;2.83;;;;;;;;;;5082414;28;20044;-77
2021/12/24 15:37:20;;;;;;;6.80;2.70;;;;;;;;;;5070154;28;20964;-77
2021/12/24 15:39:46;;;;;;;5.40;2.72;;;;;;;;;;5072012;28;20087;-78
2021/12/24 15:42:15;;;;;;;5.47;2.60;;;;;;;;;;5074473;28;20111;-76
2021/12/24 15:44:45;;;;;;;5.35;2.85;;;;;;;;;;5076186;28;20028;-78
2021/12/24 15:47:12;;;;;;;9.95;4.47;;;;;;;;;;5072927;28;20065;-78
2021/12/24 15:49:39;;;;;;;12.85;5.15;;;;;;;;;;5076262;28;20130;-78
2021/12/24 15:52:06;;;;;;;8.32;4.55;;;;;;;;;;5086482;28;20957;-77
2021/12/24 15:54:33;;;;;;;7.53;4.40;;;;;;;;;;5084426;28;20061;-79
2021/12/24 15:56:59;;;;;;;9.52;4.07;;;;;;;;;;5071275;28;20211;-78
2021/12/24 15:59:31;;;;;;;14.20;6.88;;;;;;;;;;5079078;28;20049;-78
2021/12/24 16:01:58;;;;;;;17.17;6.93;;;;;;;;;;5085366;28;20057;-80
2021/12/24 16:04:25;;;;;;;11.40;4.85;;;;;;;;;;5073946;28;20509;-80
2021/12/24 16:06:52;;;;;;;9.07;4.63;;;;;;;;;;5072971;28;20084;-80
2021/12/24 16:09:23;;;;;;;9.10;4.95;;;;;;;;;;5071500;28;20638;-81
2021/12/24 16:11:50;;;;;;;8.52;4.93;;;;;;;;;;5074628;28;20106;-80
2021/12/24 16:14:17;;;;;;;10.27;5.72;;;;;;;;;;5074947;28;20589;-80
2021/12/24 16:16:44;;;;;;;18.92;8.77;;;;;;;;;;5078390;28;20508;-78
2021/12/24 16:19:11;;;;;;;13.68;7.20;;;;;;;;;;5090816;28;20049;-78
2021/12/24 16:21:39;;;;;;;13.50;7.05;;;;;;;;;;5078360;28;20056;-79
2021/12/24 16:24:06;;;;;;;13.15;7.20;;;;;;;;;;5072494;28;20144;-80